Covert, Michigan
Current Conditions -  °F | °C
As of 3:34 PM on Friday 28 Nov 2014 (Local Time) from KLWA Reporting Station
Overcast Overcast  
Wind Chill: -8°   Ceiling: 7500
Heat Index: -3°   Visibility: 10mi
Dew Point: -8°   Wind: 12mph
Humidity: 67%   Direction: 140°SE
Pressure: 30.07"   Gusts: 16mph
Location:  42.29°N, 86.26°W
Report Text: KLWA 282034Z AUTO 14010G14KT 10SM SCT065 BKN075 OVC100 M02/M08 A3007 RMK AO2 T10251079
Loading
Personal Weather Stations






























Interactive Weather Map New forecast layout! Learn more

10-Day Weather Forecast

Advertisements
Track Severe Weather on mobile